Time;durP1;ratioP1;P1;durP2;ratioP2;P2;SDS_P1;SDS_P2;PMS_P1;PMS_P2;Temp;Humidity;BMP_temperature;BMP_pressure;BME280_temperature;BME280_humidity;BME280_pressure;Samples;Min_cycle;Max_cycle;Signal;HPM_P1;HPM_P2
2023/05/15 00:01:45;;;;;;;6.90;6.40;;;;;;;12.65;81.83;100221.59;4976937;28;20290;-79
2023/05/15 00:04:12;;;;;;;6.13;5.73;;;;;;;12.77;81.15;100235.22;4977168;28;20217;-79
2023/05/15 00:06:38;;;;;;;7.03;6.10;;;;;;;12.81;80.16;100257.78;4977485;28;20279;-79
2023/05/15 00:09:06;;;;;;;6.43;6.00;;;;;;;12.56;79.62;100286.47;4977209;28;20217;-79
2023/05/15 00:11:33;;;;;;;6.43;6.03;;;;;;;12.28;80.50;100266.34;4976581;28;20248;-79
2023/05/15 00:13:59;;;;;;;6.47;6.07;;;;;;;12.02;78.83;100286.25;4977201;28;20246;-79
2023/05/15 00:16:25;;;;;;;11.87;7.37;;;;;;;11.99;78.17;100301.16;4976649;28;20548;-79
2023/05/15 00:18:52;;;;;;;6.87;6.43;;;;;;;12.02;78.56;100301.94;4977096;28;20722;-79
2023/05/15 00:21:18;;;;;;;7.00;6.57;;;;;;;11.83;80.53;100280.63;4976910;28;20731;-79
2023/05/15 00:23:52;;;;;;;7.53;7.03;;;;;;;11.85;78.91;100278.84;4977197;28;20717;-79
2023/05/15 00:26:23;;;;;;;7.10;6.60;;;;;;;11.74;81.10;100273.03;4977394;28;20211;-79
2023/05/15 00:28:49;;;;;;;7.13;6.53;;;;;;;11.75;79.59;100263.41;4977017;28;20577;-79
2023/05/15 00:31:16;;;;;;;6.90;6.40;;;;;;;11.79;79.92;100271.13;4976964;28;20266;-79
2023/05/15 00:33:42;;;;;;;7.40;6.80;;;;;;;11.77;80.41;100266.84;4976875;28;20255;-79
2023/05/15 00:36:09;;;;;;;7.57;7.07;;;;;;;11.65;81.72;100250.56;4977112;28;20240;-79
2023/05/15 00:38:35;;;;;;;8.03;7.53;;;;;;;11.57;81.28;100238.63;4976808;28;20582;-79
2023/05/15 00:41:02;;;;;;;7.90;7.23;;;;;;;11.39;84.00;100198.97;4976570;28;20256;-79
2023/05/15 00:43:31;;;;;;;7.57;6.97;;;;;;;11.26;85.15;100156.66;4976399;28;20244;-78
2023/05/15 00:45:57;;;;;;;8.30;7.60;;;;;;;11.19;85.35;100141.19;4976379;28;20247;-78
2023/05/15 00:48:24;;;;;;;7.63;7.03;;;;;;;11.15;84.99;100114.28;4976600;28;20277;-79
2023/05/15 00:50:51;;;;;;;7.87;7.27;;;;;;;11.37;83.13;100119.78;4975843;28;20571;-79
2023/05/15 00:53:17;;;;;;;7.40;6.90;;;;;;;11.53;81.95;100162.03;4976789;28;20224;-79
2023/05/15 00:55:46;;;;;;;7.20;6.70;;;;;;;11.64;80.89;100186.13;4976750;28;20212;-79
2023/05/15 00:58:14;;;;;;;7.30;6.70;;;;;;;11.62;81.96;100177.47;4976095;28;20212;-79
2023/05/15 01:00:42;;;;;;;7.93;7.43;;;;;;;11.69;80.96;100186.88;4975996;28;20231;-79
2023/05/15 01:03:09;;;;;;;7.17;6.67;;;;;;;11.81;81.10;100206.56;4976270;28;20251;-79
2023/05/15 01:05:35;;;;;;;7.20;6.63;;;;;;;11.78;81.73;100198.81;4976042;28;20212;-78
2023/05/15 01:08:08;;;;;;;7.40;6.87;;;;;;;11.83;81.58;100215.25;4976374;28;20207;-78
2023/05/15 01:10:36;;;;;;;7.23;6.73;;;;;;;11.88;80.70;100218.56;4976030;28;20204;-78
2023/05/15 01:13:04;;;;;;;7.83;7.23;;;;;;;11.93;80.50;100231.56;4975438;28;20234;-78
2023/05/15 01:15:30;;;;;;;7.33;6.83;;;;;;;11.88;81.06;100233.41;4969079;28;20206;-79
2023/05/15 01:17:58;;;;;;;7.50;6.90;;;;;;;11.96;79.79;100241.09;4975612;28;20247;-79
2023/05/15 01:20:24;;;;;;;7.73;7.23;;;;;;;11.86;80.92;100230.84;4975691;28;20282;-78
2023/05/15 01:23:05;;;;;;;8.00;7.40;;;;;;;11.87;80.82;100226.47;4975306;28;20228;-79
2023/05/15 01:26:11;;;;;;;8.20;7.70;;;;;;;11.88;80.36;100223.81;4975700;28;20283;-79
2023/05/15 01:28:45;;;;;;;8.27;7.67;;;;;;;11.91;79.79;100230.75;4975751;28;20640;-79
2023/05/15 01:31:15;;;;;;;7.40;6.90;;;;;;;11.89;80.41;100235.16;4975494;28;20235;-78
2023/05/15 01:33:46;;;;;;;7.73;7.23;;;;;;;11.98;78.93;100250.59;4975590;28;20235;-79
2023/05/15 01:36:18;;;;;;;7.97;7.47;;;;;;;11.94;79.80;100238.50;4976078;28;20216;-79
2023/05/15 01:38:49;;;;;;;8.03;7.47;;;;;;;12.03;79.03;100245.22;4975269;28;20215;-79
2023/05/15 01:41:21;;;;;;;7.33;6.93;;;;;;;12.00;81.28;100237.50;4975243;28;20260;-79
2023/05/15 01:43:56;;;;;;;8.23;7.67;;;;;;;11.98;79.18;100250.59;4975298;28;20231;-79
2023/05/15 01:46:23;;;;;;;8.43;7.53;;;;;;;11.93;80.88;100231.56;4975705;28;20199;-79
2023/05/15 01:48:51;;;;;;;9.90;8.10;;;;;;;11.95;78.92;100253.28;4975247;28;20231;-79
2023/05/15 01:51:20;;;;;;;8.87;8.20;;;;;;;11.98;78.52;100258.44;4974629;28;20238;-79
2023/05/15 01:53:47;;;;;;;7.90;7.37;;;;;;;11.93;81.75;100192.31;4975450;28;20206;-79
2023/05/15 01:56:15;;;;;;;11.93;8.50;;;;;;;11.79;82.95;100179.59;4975000;28;20231;-79
2023/05/15 01:58:43;;;;;;;8.30;7.80;;;;;;;11.68;82.00;100177.28;4975144;28;20251;-79
2023/05/15 02:01:12;;;;;;;8.40;7.90;;;;;;;11.55;82.33;100170.69;4974781;28;20714;-79
2023/05/15 02:03:41;;;;;;;8.00;7.50;;;;;;;11.58;81.36;100173.22;4974947;28;20259;-79
2023/05/15 02:06:07;;;;;;;9.13;8.33;;;;;;;11.61;82.02;100174.88;4974851;28;20244;-79
2023/05/15 02:08:34;;;;;;;8.37;7.87;;;;;;;11.60;81.94;100166.19;4975307;28;20244;-79
2023/05/15 02:11:02;;;;;;;8.20;7.60;;;;;;;11.49;82.55;100153.41;4968192;28;20232;-79
2023/05/15 02:13:30;;;;;;;8.80;8.17;;;;;;;11.46;83.84;100137.81;4962377;28;20233;-79
2023/05/15 02:15:57;;;;;;;9.87;8.03;;;;;;;11.45;82.28;100130.88;4971740;28;20208;-78
2023/05/15 02:18:24;;;;;;;8.40;7.70;;;;;;;11.55;80.90;100141.94;4974869;28;20340;-79
2023/05/15 02:20:51;;;;;;;8.20;7.60;;;;;;;11.64;84.80;100112.91;4974180;28;20231;-79
2023/05/15 02:23:19;;;;;;;8.57;7.87;;;;;;;11.57;83.81;100092.22;4974654;28;20266;-79
2023/05/15 02:25:56;;;;;;;8.23;7.63;;;;;;;11.46;82.78;100103.00;4975043;28;20211;-79
2023/05/15 02:28:30;;;;;;;8.57;7.90;;;;;;;11.55;81.67;100141.94;4974786;28;20647;-79
2023/05/15 02:31:05;;;;;;;8.60;7.87;;;;;;;11.68;79.81;100172.06;4974436;28;20266;-79
2023/05/15 02:33:50;;;;;;;8.20;7.60;;;;;;;11.70;81.46;100178.09;4975476;28;20234;-79
2023/05/15 02:36:20;;;;;;;7.77;7.27;;;;;;;11.71;85.24;100114.47;4974825;28;20848;-79
2023/05/15 02:38:48;;;;;;;8.70;7.90;;;;;;;11.60;80.93;100128.75;4977573;28;20231;-79
2023/05/15 02:41:15;;;;;;;8.07;7.57;;;;;;;11.54;81.92;100142.84;4978071;28;20597;-79
2023/05/15 02:43:42;;;;;;;8.03;7.47;;;;;;;11.46;82.41;100143.06;4978670;28;20310;-78
2023/05/15 02:46:09;;;;;;;9.00;8.40;;;;;;;11.30;84.83;100124.31;4978145;28;20235;-79
2023/05/15 02:48:39;;;;;;;8.40;7.80;;;;;;;11.25;84.76;100094.81;4978269;28;20268;-78
2023/05/15 02:51:06;;;;;;;8.40;7.90;;;;;;;11.19;83.87;100089.78;4978013;28;20243;-79
2023/05/15 02:53:33;;;;;;;8.10;7.60;;;;;;;11.19;83.49;100097.63;4978410;28;20290;-79
2023/05/15 02:56:01;;;;;;;8.37;7.77;;;;;;;11.19;83.01;100105.44;4978022;28;20235;-79
2023/05/15 02:58:27;;;;;;;9.27;8.47;;;;;;;11.18;84.30;100103.75;4978227;28;20204;-78
2023/05/15 03:00:54;;;;;;;8.37;7.70;;;;;;;11.11;83.31;100096.97;4977890;28;20260;-79
2023/05/15 03:03:20;;;;;;;9.00;8.43;;;;;;;10.97;84.51;100076.44;4978048;28;20255;-78
2023/05/15 03:05:48;;;;;;;8.10;7.60;;;;;;;11.05;83.46;100082.31;4978031;28;20245;-79
2023/05/15 03:08:14;;;;;;;7.80;7.20;;;;;;;11.09;83.83;100097.00;4977714;28;20239;-79
2023/05/15 03:10:41;;;;;;;8.53;7.83;;;;;;;11.11;83.32;100091.75;4977585;28;20216;-79
2023/05/15 03:13:07;;;;;;;8.07;7.47;;;;;;;11.13;83.00;100101.25;4977958;28;20290;-79
2023/05/15 03:15:33;;;;;;;8.20;7.60;;;;;;;11.24;82.46;100116.66;4977807;28;20235;-79
2023/05/15 03:18:00;;;;;;;7.80;7.23;;;;;;;11.26;82.56;100116.63;4977605;28;20242;-79
2023/05/15 03:20:26;;;;;;;8.80;7.93;;;;;;;11.25;83.49;100104.44;4977884;28;20291;-79
2023/05/15 03:22:54;;;;;;;7.83;7.33;;;;;;;11.25;82.56;100096.59;4977110;28;20231;-78
2023/05/15 03:25:22;;;;;;;8.40;7.80;;;;;;;11.27;82.76;100095.66;4978036;28;20204;-79
2023/05/15 03:27:48;;;;;;;8.57;7.63;;;;;;;11.26;84.25;100087.88;4978217;28;20243;-79
2023/05/15 03:30:15;;;;;;;8.30;7.70;;;;;;;11.24;83.26;100079.22;4977990;28;20208;-78
2023/05/15 03:32:41;;;;;;;9.13;8.53;;;;;;;11.29;82.71;100087.78;4977736;28;20232;-78
2023/05/15 03:35:08;;;;;;;8.90;8.30;;;;;;;11.29;83.84;100093.84;4977270;28;20293;-79
2023/05/15 03:37:35;;;;;;;8.57;7.97;;;;;;;11.36;82.68;100102.41;4978165;28;20204;-79
2023/05/15 03:40:03;;;;;;;8.97;8.17;;;;;;;11.33;83.69;100092.00;4977879;28;20239;-79
2023/05/15 03:42:29;;;;;;;8.03;7.43;;;;;;;11.35;83.94;100074.53;4977494;28;20237;-78
2023/05/15 03:44:56;;;;;;;8.80;8.00;;;;;;;11.34;82.42;100088.50;4977620;28;20212;-78
2023/05/15 03:47:22;;;;;;;8.43;7.83;;;;;;;11.40;83.57;100080.50;4977256;28;20208;-79
2023/05/15 03:49:48;;;;;;;8.37;7.80;;;;;;;11.42;82.63;100078.69;4976837;28;20207;-79
2023/05/15 03:52:15;;;;;;;8.80;8.20;;;;;;;11.53;81.65;100112.34;4977113;28;20267;-79
2023/05/15 03:54:42;;;;;;;8.03;7.53;;;;;;;11.64;79.91;100138.22;4977381;28;20204;-78
2023/05/15 03:57:09;;;;;;;8.17;7.47;;;;;;;11.73;80.46;100151.00;4977405;28;20679;-79
2023/05/15 03:59:36;;;;;;;7.37;6.87;;;;;;;11.79;78.84;100176.13;4977675;28;20212;-79
2023/05/15 04:02:02;;;;;;;8.17;7.47;;;;;;;11.86;78.32;100199.47;4977368;28;20281;-79
2023/05/15 04:04:28;;;;;;;7.80;7.20;;;;;;;11.90;78.38;100214.19;4977837;28;20235;-78
2023/05/15 04:06:55;;;;;;;8.33;7.60;;;;;;;11.99;78.79;100222.69;4977923;28;20291;-79
2023/05/15 04:09:21;;;;;;;8.47;7.67;;;;;;;12.00;77.73;100246.19;4977706;28;20212;-79
2023/05/15 04:11:47;;;;;;;8.27;7.70;;;;;;;12.02;78.62;100251.38;4976765;28;20773;-79
2023/05/15 04:14:15;;;;;;;9.00;8.10;;;;;;;12.01;77.82;100239.19;4977096;28;20236;-79
2023/05/15 04:16:41;;;;;;;9.50;8.90;;;;;;;12.00;82.70;100201.72;4977066;28;20262;-79
2023/05/15 04:19:08;;;;;;;9.23;8.63;;;;;;;11.69;86.73;100089.25;4976965;28;20220;-79
2023/05/15 04:21:34;;;;;;;9.77;8.83;;;;;;;11.60;86.78;100048.56;4976929;28;20223;-79
2023/05/15 04:24:00;;;;;;;10.07;9.30;;;;;;;11.47;87.80;100005.38;4977487;28;20208;-79
2023/05/15 04:26:27;;;;;;;9.10;8.50;;;;;;;11.38;86.16;99985.59;4978872;28;20219;-79
2023/05/15 04:28:55;;;;;;;8.20;7.60;;;;;;;11.47;82.67;100005.38;4977778;28;20204;-79
2023/05/15 04:31:23;;;;;;;8.27;7.77;;;;;;;11.65;81.99;100057.09;4976977;28;20668;-79
2023/05/15 04:33:49;;;;;;;8.57;7.97;;;;;;;11.77;81.07;100096.88;4977529;28;20218;-79
2023/05/15 04:36:16;;;;;;;8.73;8.13;;;;;;;11.89;81.93;100122.69;4977191;28;20235;-79
2023/05/15 04:38:42;;;;;;;8.37;7.77;;;;;;;11.86;80.38;100148.91;4976971;28;20208;-79
2023/05/15 04:41:08;;;;;;;8.57;7.97;;;;;;;11.85;80.38;100166.38;4976684;28;20239;-79
2023/05/15 04:43:35;;;;;;;9.27;8.57;;;;;;;11.71;83.33;100122.31;5003462;23;20230;-83
2023/05/15 04:46:01;;;;;;;9.63;9.03;;;;;;;11.60;83.53;100098.22;5006710;28;20207;-83
2023/05/15 04:48:29;;;;;;;9.57;8.97;;;;;;;11.57;85.83;100060.84;5002289;28;20262;-81
2023/05/15 04:50:55;;;;;;;9.53;8.83;;;;;;;11.54;86.72;100025.22;5023259;28;20221;-84
2023/05/15 04:53:21;;;;;;;9.63;8.93;;;;;;;11.58;87.23;99990.25;5005773;28;20231;-83
2023/05/15 04:55:50;;;;;;;9.40;8.80;;;;;;;11.67;85.00;100016.13;5003586;28;20207;-84
2023/05/15 04:58:16;;;;;;;9.13;8.43;;;;;;;11.74;83.74;100045.53;5003000;28;20307;-83
2023/05/15 05:00:42;;;;;;;9.47;8.77;;;;;;;11.73;84.76;100030.72;5002789;28;20261;-83
2023/05/15 05:03:09;;;;;;;10.37;9.57;;;;;;;11.72;87.68;99990.66;5003173;28;20238;-82
2023/05/15 05:05:37;;;;;;;9.93;9.23;;;;;;;11.66;90.48;99933.34;5001284;28;20222;-84
2023/05/15 05:08:03;;;;;;;9.90;9.30;;;;;;;11.69;92.30;99870.50;5001487;28;20216;-83
2023/05/15 05:10:29;;;;;;;11.40;10.70;;;;;;;11.71;93.93;99842.56;5003786;28;20215;-83
2023/05/15 05:12:56;;;;;;;10.90;10.20;;;;;;;11.78;95.10;99806.59;5002946;28;20208;-83
2023/05/15 05:15:22;;;;;;;11.97;11.07;;;;;;;11.79;94.56;99796.97;5004339;28;20640;-81
2023/05/15 05:17:48;;;;;;;12.07;11.17;;;;;;;11.81;94.69;99803.00;5004954;28;20242;-83
2023/05/15 05:20:15;;;;;;;11.03;10.33;;;;;;;11.92;93.58;99820.06;5004352;28;20211;-82
2023/05/15 05:22:43;;;;;;;10.80;10.03;;;;;;;12.07;92.36;99829.16;5004392;28;20243;-82
2023/05/15 05:25:09;;;;;;;11.87;11.00;;;;;;;12.21;92.23;99841.75;5004699;28;20231;-83
2023/05/15 05:27:36;;;;;;;10.30;9.63;;;;;;;12.31;89.79;99898.09;5007716;28;20208;-83
2023/05/15 05:30:03;;;;;;;11.23;10.53;;;;;;;12.50;88.44;99928.84;5006244;28;20699;-83
2023/05/15 05:32:29;;;;;;;10.43;9.63;;;;;;;12.71;87.30;99956.91;5005555;28;20204;-83
2023/05/15 05:34:55;;;;;;;10.27;9.53;;;;;;;12.70;87.49;99976.16;5000390;28;20290;-83
2023/05/15 05:37:22;;;;;;;10.50;9.80;;;;;;;12.68;86.71;99987.56;5000896;28;20208;-82
2023/05/15 05:39:49;;;;;;;10.63;9.83;;;;;;;12.70;86.78;99999.72;5003879;28;20208;-83
2023/05/15 05:42:16;;;;;;;10.43;9.73;;;;;;;12.88;86.13;100018.28;5004154;28;20688;-83
2023/05/15 05:44:42;;;;;;;10.83;10.13;;;;;;;12.95;84.64;100053.84;5003087;28;20824;-83
2023/05/15 05:47:08;;;;;;;10.23;9.53;;;;;;;13.12;84.06;100071.59;5003186;28;20212;-83
2023/05/15 05:49:35;;;;;;;10.20;9.40;;;;;;;13.17;85.01;100092.41;5001527;28;20757;-82
2023/05/15 05:52:08;;;;;;;9.83;9.13;;;;;;;13.31;85.72;100083.16;5001171;28;20217;-83
2023/05/15 05:54:34;;;;;;;11.07;10.37;;;;;;;13.16;86.08;100077.59;5002649;28;20224;-83
2023/05/15 05:57:02;;;;;;;10.80;9.93;;;;;;;13.14;87.07;100048.84;5000783;28;20215;-83
2023/05/15 05:59:28;;;;;;;11.50;10.80;;;;;;;13.25;86.12;100057.16;5000865;28;20698;-84
2023/05/15 06:01:55;;;;;;;11.57;10.67;;;;;;;13.38;84.23;100085.56;5001197;28;20232;-83
2023/05/15 06:04:21;;;;;;;11.30;10.50;;;;;;;13.40;84.09;100100.34;5000295;28;20220;-84
2023/05/15 06:06:48;;;;;;;11.03;10.37;;;;;;;13.45;85.03;100095.78;4999094;28;20216;-83
2023/05/15 06:09:15;;;;;;;12.03;11.00;;;;;;;13.66;84.19;100095.91;4998373;28;20235;-84
2023/05/15 06:11:41;;;;;;;12.37;11.27;;;;;;;13.78;81.69;100134.81;4998560;28;20295;-82
2023/05/15 06:14:09;;;;;;;12.40;11.40;;;;;;;13.76;81.12;100159.38;5007355;28;20275;-83
2023/05/15 06:16:35;;;;;;;13.53;12.53;;;;;;;13.77;81.35;100172.44;5017630;28;20270;-83
2023/05/15 06:19:02;;;;;;;13.37;12.57;;;;;;;13.82;81.92;100167.88;5018627;28;20279;-83
2023/05/15 06:21:28;;;;;;;12.97;12.10;;;;;;;13.91;82.98;100161.41;5017684;28;20301;-84
2023/05/15 06:23:54;;;;;;;13.37;12.47;;;;;;;13.83;81.47;100166.94;4998357;28;20233;-82
2023/05/15 06:26:21;;;;;;;14.27;13.27;;;;;;;13.85;81.18;100182.66;4996700;28;20589;-82
2023/05/15 06:28:48;;;;;;;13.70;12.77;;;;;;;13.96;81.51;100192.75;4995594;28;20221;-82
2023/05/15 06:31:16;;;;;;;14.17;12.77;;;;;;;13.96;79.14;100219.00;4994601;28;20235;-83
2023/05/15 06:33:42;;;;;;;14.03;13.03;;;;;;;13.96;79.60;100238.22;4994735;28;20225;-81
2023/05/15 06:36:08;;;;;;;13.00;12.10;;;;;;;14.10;80.08;100238.56;4994099;28;20263;-80
2023/05/15 06:38:35;;;;;;;14.50;13.60;;;;;;;14.23;80.34;100233.75;4994718;28;20261;-82
2023/05/15 06:41:01;;;;;;;13.27;12.37;;;;;;;14.25;78.08;100259.91;4993895;28;20678;-81
2023/05/15 06:43:27;;;;;;;12.97;12.07;;;;;;;14.28;76.34;100301.81;5001919;28;20265;-83
2023/05/15 06:45:54;;;;;;;13.30;12.40;;;;;;;14.36;74.70;100346.19;4995086;28;20206;-82
2023/05/15 06:48:22;;;;;;;13.77;12.87;;;;;;;14.50;74.77;100367.53;4995194;28;20240;-80
2023/05/15 06:50:48;;;;;;;13.23;12.33;;;;;;;14.45;74.54;100393.97;4995710;28;20218;-81
2023/05/15 06:53:16;;;;;;;12.40;11.60;;;;;;;14.61;74.39;100396.09;4997267;28;20205;-81
2023/05/15 06:55:42;;;;;;;13.03;12.23;;;;;;;14.61;73.34;100420.59;4996693;28;20213;-82
2023/05/15 06:58:09;;;;;;;13.40;12.50;;;;;;;14.65;73.52;100435.31;4995067;28;20236;-82
2023/05/15 07:00:35;;;;;;;12.87;11.97;;;;;;;14.74;72.85;100431.50;4995127;28;20252;-80
2023/05/15 07:03:01;;;;;;;12.57;11.77;;;;;;;14.80;72.81;100447.03;4994975;28;20231;-80
2023/05/15 07:05:29;;;;;;;12.87;11.87;;;;;;;14.83;72.72;100462.72;4995603;28;20268;-80
2023/05/15 07:07:55;;;;;;;13.10;12.30;;;;;;;14.90;73.39;100465.97;4995289;28;20217;-80
2023/05/15 07:10:22;;;;;;;12.67;11.77;;;;;;;14.89;72.76;100451.97;4995284;28;20210;-80
2023/05/15 07:12:48;;;;;;;12.30;11.50;;;;;;;14.87;73.69;100447.69;4994788;28;20258;-82
2023/05/15 07:15:16;;;;;;;12.10;11.30;;;;;;;14.99;72.21;100447.22;4994851;28;20787;-82
2023/05/15 07:17:43;;;;;;;12.20;11.30;;;;;;;15.06;71.35;100455.75;4994805;28;20298;-82
2023/05/15 07:20:10;;;;;;;12.73;11.83;;;;;;;14.82;72.46;100479.38;4995891;28;20206;-82
2023/05/15 07:22:38;;;;;;;13.37;12.37;;;;;;;15.00;72.66;100450.72;4998075;28;20246;-80
2023/05/15 07:25:06;;;;;;;12.70;11.90;;;;;;;15.01;73.38;100447.19;4996094;28;20245;-81
2023/05/15 07:27:32;;;;;;;12.57;11.60;;;;;;;14.88;73.13;100442.38;4998300;28;20696;-80
2023/05/15 07:29:59;;;;;;;13.07;12.13;;;;;;;14.88;73.26;100428.38;4997318;28;20240;-79
2023/05/15 07:32:25;;;;;;;13.03;11.97;;;;;;;15.03;73.65;100412.03;4997963;28;20206;-80
2023/05/15 07:34:52;;;;;;;12.03;11.20;;;;;;;14.83;72.45;100425.91;4998075;28;20272;-80
2023/05/15 07:37:18;;;;;;;12.23;11.23;;;;;;;14.90;72.40;100410.75;4999108;28;20244;-81
2023/05/15 07:39:46;;;;;;;12.70;11.80;;;;;;;15.06;72.01;100434.69;4999335;28;20817;-81
2023/05/15 07:42:12;;;;;;;13.17;12.23;;;;;;;14.94;72.70;100432.53;5000839;28;20265;-79
2023/05/15 07:44:38;;;;;;;12.53;11.60;;;;;;;14.82;72.43;100429.44;4999768;28;20287;-78
2023/05/15 07:47:05;;;;;;;12.37;11.60;;;;;;;14.82;72.57;100433.84;5003507;28;20215;-80
2023/05/15 07:49:31;;;;;;;11.73;10.83;;;;;;;14.92;70.99;100443.09;4996483;28;20264;-80
2023/05/15 07:51:58;;;;;;;12.67;11.53;;;;;;;15.04;71.78;100455.81;4995547;28;20267;-79
2023/05/15 07:54:25;;;;;;;12.27;11.37;;;;;;;15.23;73.27;100427.03;4996169;28;20750;-80
2023/05/15 07:56:53;;;;;;;12.63;11.77;;;;;;;15.38;71.84;100387.91;4997084;28;20213;-82
2023/05/15 07:59:20;;;;;;;12.77;11.63;;;;;;;15.37;69.37;100442.28;4997353;28;20210;-79
2023/05/15 08:01:46;;;;;;;11.57;10.77;;;;;;;15.29;69.43;100504.84;4996783;28;20271;-79
2023/05/15 08:04:12;;;;;;;11.67;10.87;;;;;;;15.41;69.62;100496.50;4997553;28;20749;-80
2023/05/15 08:06:41;;;;;;;12.27;11.33;;;;;;;15.18;69.19;100526.28;4996659;28;20247;-80
2023/05/15 08:09:08;;;;;;;11.70;10.60;;;;;;;15.19;69.83;100514.00;4995925;28;20236;-79
2023/05/15 08:11:34;;;;;;;12.50;11.70;;;;;;;15.08;68.91;100506.50;4997956;28;20668;-80
2023/05/15 08:14:02;;;;;;;12.50;11.60;;;;;;;15.03;70.34;100485.63;5002346;28;20232;-78
2023/05/15 08:16:29;;;;;;;11.73;10.93;;;;;;;15.05;68.97;100488.22;5003543;28;20214;-81
2023/05/15 08:19:00;;;;;;;12.67;11.67;;;;;;;15.23;68.37;100500.66;5003245;28;20257;-78
2023/05/15 08:21:26;;;;;;;12.50;11.60;;;;;;;15.21;67.91;100510.38;4999930;28;20217;-79
2023/05/15 08:23:52;;;;;;;11.40;10.50;;;;;;;15.49;68.68;100518.09;5001233;28;20245;-79
2023/05/15 08:26:19;;;;;;;11.40;10.60;;;;;;;15.63;68.79;100511.44;5003787;28;20623;-80
2023/05/15 08:28:46;;;;;;;12.87;11.90;;;;;;;15.66;69.16;100501.66;5003462;28;20219;-80
2023/05/15 08:31:13;;;;;;;11.30;10.40;;;;;;;15.84;68.94;100502.75;5002599;28;20213;-80
2023/05/15 08:33:40;;;;;;;11.67;10.87;;;;;;;15.88;68.23;100519.28;5002443;28;20263;-79
2023/05/15 08:36:07;;;;;;;12.50;11.60;;;;;;;15.86;67.51;100545.66;5001514;28;20233;-79
2023/05/15 08:38:33;;;;;;;11.20;10.50;;;;;;;15.93;66.91;100548.91;5000970;28;20603;-81
2023/05/15 08:41:07;;;;;;;11.80;10.90;;;;;;;16.15;68.34;100540.16;5000102;28;20222;-80
2023/05/15 08:43:35;;;;;;;11.10;10.40;;;;;;;16.34;66.19;100542.91;5000506;28;20246;-80
2023/05/15 08:46:02;;;;;;;9.97;9.17;;;;;;;16.47;65.44;100568.69;5000263;28;20245;-80
2023/05/15 08:48:32;;;;;;;10.00;9.40;;;;;;;16.35;65.14;100607.84;4998375;28;20244;-79
2023/05/15 08:51:00;;;;;;;10.10;9.40;;;;;;;16.38;65.19;100613.84;4998969;28;20210;-80
2023/05/15 08:53:28;;;;;;;10.93;9.87;;;;;;;16.37;63.46;100627.94;4999375;28;20239;-80
2023/05/15 08:55:55;;;;;;;9.63;9.03;;;;;;;16.34;65.16;100614.03;4999570;28;20207;-80
2023/05/15 08:58:24;;;;;;;9.83;9.13;;;;;;;16.43;64.40;100619.78;5001537;28;20245;-80
2023/05/15 09:00:52;;;;;;;10.53;9.80;;;;;;;16.52;64.46;100615.06;5001547;28;20217;-80
2023/05/15 09:03:21;;;;;;;11.27;10.47;;;;;;;16.34;65.24;100614.03;5003376;28;20238;-80
2023/05/15 09:05:51;;;;;;;11.10;10.30;;;;;;;16.51;66.91;100598.41;5000562;28;20207;-79
2023/05/15 09:08:20;;;;;;;10.23;9.43;;;;;;;16.45;66.05;100590.72;5000983;28;20635;-80
2023/05/15 09:10:48;;;;;;;9.33;8.73;;;;;;;16.68;65.77;100577.44;5000398;28;20740;-80
2023/05/15 09:13:16;;;;;;;9.10;8.50;;;;;;;16.86;64.61;100606.63;5001393;28;20207;-80
2023/05/15 09:15:42;;;;;;;8.60;8.00;;;;;;;16.87;61.89;100661.09;5005389;28;20246;-80
2023/05/15 09:18:09;;;;;;;9.43;8.63;;;;;;;17.01;62.63;100669.28;5007015;28;20218;-80
2023/05/15 09:20:37;;;;;;;9.67;8.97;;;;;;;17.15;63.66;100681.88;5004622;28;20661;-79
2023/05/15 09:23:21;;;;;;;8.50;7.90;;;;;;;17.13;62.50;100693.44;5005941;28;20258;-81
2023/05/15 09:25:52;;;;;;;8.30;7.60;;;;;;;17.41;62.12;100707.16;5005285;28;20345;-82
2023/05/15 09:28:26;;;;;;;8.40;7.70;;;;;;;17.55;58.64;100771.69;5005575;28;20214;-82
2023/05/15 09:30:57;;;;;;;8.30;7.70;;;;;;;17.67;57.51;100830.09;5005072;28;20218;-81
2023/05/15 09:33:28;;;;;;;7.77;7.17;;;;;;;17.67;58.03;100837.16;5000156;28;20227;-78
2023/05/15 09:35:54;;;;;;;7.70;7.20;;;;;;;17.64;57.67;100867.19;4998890;28;20207;-79
2023/05/15 09:38:21;;;;;;;9.40;8.70;;;;;;;17.64;59.22;100839.91;4999000;28;20756;-79
2023/05/15 09:40:48;;;;;;;8.00;7.50;;;;;;;17.78;58.86;100812.94;4998079;28;20211;-81
2023/05/15 09:43:16;;;;;;;7.93;7.33;;;;;;;17.92;57.73;100847.59;4997784;28;20265;-81
2023/05/15 09:45:42;;;;;;;8.53;7.70;;;;;;;17.83;55.97;100880.50;4998064;28;20211;-81
2023/05/15 09:48:10;;;;;;;7.93;7.30;;;;;;;18.05;54.86;100884.88;4997629;28;20261;-80
2023/05/15 09:50:38;;;;;;;8.70;8.20;;;;;;;18.22;55.62;100910.59;4998257;28;20203;-80
2023/05/15 09:53:05;;;;;;;9.00;8.30;;;;;;;18.24;57.60;100903.47;4997240;28;20580;-81
2023/05/15 09:55:33;;;;;;;7.40;6.90;;;;;;;18.51;55.48;100856.41;4996886;28;20214;-80
2023/05/15 09:58:08;;;;;;;7.13;6.57;;;;;;;18.84;55.74;100843.47;4996821;28;20212;-81
2023/05/15 10:00:35;;;;;;;8.53;7.83;;;;;;;18.88;55.29;100896.25;4997632;28;20267;-80
2023/05/15 10:03:02;;;;;;;8.77;8.17;;;;;;;18.83;54.56;100899.09;4997580;28;20281;-81
2023/05/15 10:05:29;;;;;;;8.63;7.93;;;;;;;18.81;55.99;100903.59;4997720;28;20210;-80
2023/05/15 10:07:57;;;;;;;7.97;7.37;;;;;;;18.95;55.47;100881.78;4997463;28;20217;-80
2023/05/15 10:10:25;;;;;;;8.60;7.50;;;;;;;18.88;55.86;100875.06;4997591;28;20211;-81
2023/05/15 10:12:54;;;;;;;8.60;8.07;;;;;;;19.07;55.89;100864.47;5005463;28;20207;-80
2023/05/15 10:15:22;;;;;;;8.17;7.57;;;;;;;19.03;56.02;100862.00;4997273;28;20227;-81
2023/05/15 10:17:49;;;;;;;9.37;8.67;;;;;;;18.92;56.33;100858.13;4997929;28;20230;-81
2023/05/15 10:20:17;;;;;;;8.27;7.63;;;;;;;19.05;55.19;100851.34;4998622;28;20211;-80
2023/05/15 10:22:46;;;;;;;9.63;8.73;;;;;;;19.14;57.92;100834.16;4998404;28;20217;-81
2023/05/15 10:25:16;;;;;;;9.23;8.73;;;;;;;19.30;57.85;100787.47;4997571;28;20230;-81
2023/05/15 10:27:43;;;;;;;9.27;8.67;;;;;;;19.40;58.44;100769.34;4996375;28;20211;-81
2023/05/15 10:30:12;;;;;;;10.63;9.83;;;;;;;18.99;57.49;100798.72;4996147;28;20203;-80
2023/05/15 10:32:40;;;;;;;11.23;10.27;;;;;;;18.89;59.35;100749.81;4995992;28;20226;-81
2023/05/15 10:35:09;;;;;;;10.70;10.00;;;;;;;18.54;58.22;100741.75;4996517;28;20690;-80
2023/05/15 10:37:36;;;;;;;10.33;9.63;;;;;;;18.61;60.15;100728.19;4996188;28;20230;-81
2023/05/15 10:40:06;;;;;;;11.13;10.13;;;;;;;18.57;61.33;100691.38;4996446;28;20211;-80
2023/05/15 10:42:34;;;;;;;11.40;10.47;;;;;;;18.57;58.60;100675.50;4994238;28;20241;-79
2023/05/15 10:45:01;;;;;;;10.27;9.57;;;;;;;18.75;58.61;100687.84;4998866;23;20266;-79
2023/05/15 10:47:30;;;;;;;9.80;9.10;;;;;;;19.00;60.84;100684.00;4974027;28;20225;-79
2023/05/15 10:49:56;;;;;;;10.73;9.30;;;;;;;18.79;59.17;100670.94;4974275;28;20259;-79
2023/05/15 10:52:24;;;;;;;10.90;10.10;;;;;;;18.92;60.84;100676.44;4974038;28;20608;-79
2023/05/15 10:54:52;;;;;;;10.70;9.80;;;;;;;19.13;60.30;100626.03;4974461;28;20231;-79
2023/05/15 10:57:20;;;;;;;10.73;9.93;;;;;;;18.97;59.97;100653.28;4973538;28;20204;-77
2023/05/15 10:59:47;;;;;;;10.77;9.87;;;;;;;19.04;58.38;100665.25;4975180;28;20246;-76
2023/05/15 11:02:22;;;;;;;11.83;10.97;;;;;;;19.23;58.78;100666.97;4976284;28;20247;-77
2023/05/15 11:04:55;;;;;;;11.73;10.93;;;;;;;19.44;61.55;100633.22;4976458;28;20231;-77
2023/05/15 11:07:23;;;;;;;11.27;10.30;;;;;;;19.34;56.74;100679.63;4976438;28;20212;-77
2023/05/15 11:09:50;;;;;;;8.23;7.67;;;;;;;19.47;55.10;100717.78;4976267;28;20238;-76
2023/05/15 11:12:16;;;;;;;8.73;8.07;;;;;;;19.67;55.91;100753.81;4976096;28;20208;-77
2023/05/15 11:14:44;;;;;;;8.80;8.13;;;;;;;19.79;55.16;100773.56;4975930;28;20590;-77
2023/05/15 11:17:11;;;;;;;9.40;8.80;;;;;;;19.72;53.51;100790.69;4975958;28;20236;-77
2023/05/15 11:19:54;;;;;;;8.77;7.97;;;;;;;19.84;53.22;100817.44;4978187;28;20208;-79
2023/05/15 11:22:27;;;;;;;9.23;8.00;;;;;;;19.84;53.35;100833.31;4977816;28;20208;-80